Portland — WDG2201 — position and weather

sailwx.info

Track history (hours):
 
Tides and Currents Weather Stations Pressure Air Temp Water Temp Dewpoint Dewpoint Depression Visibility Wind Speed Wind Dir Waves Ship Positions

Portland

Owner: Shaver Transportation Company, Portland, OR. More information available from US FCC via Universal Licensing System and Coast Guard Vessel Documentation Center.

Last reported at 2016-Jun-27 03:32 UTC. Time now 2016-Jun-27 04:15 UTC.
Position N 46°05' W 122°56'.

Length 27 m; draft 4 m.

Type: Towing. MMSI: 367315814.

Date/timePositionNaut miles runAvg speedWind from/ knotsBaromVisibWave heightAir tempDewpointWater temp
2016-Jun-27 03:32N 46°05' W 122°56'0 0.0
2016-Jun-27 02:33N 46°05' W 122°56'1 0.5
2016-Jun-27 01:33N 46°06' W 122°56'0 0.0
2016-Jun-27 00:34N 46°06' W 122°56'1 0.5
2016-Jun-26 23:34N 46°05' W 122°56'4 3.7
2016-Jun-26 22:34N 46°03' W 122°53'4 3.7
2016-Jun-26 21:34N 46°05' W 122°56'0 0.0
2016-Jun-26 20:34N 46°05' W 122°56'0 0.0
2016-Jun-26 19:34N 46°05' W 122°56'0 0.0
2016-Jun-26 18:33N 46°05' W 122°56'0 0.0
2016-Jun-26 17:33N 46°05' W 122°56'0 0.0
2016-Jun-26 16:33N 46°05' W 122°56'0 0.0
2016-Jun-26 15:34N 46°05' W 122°56'0 0.0
2016-Jun-26 14:33N 46°05' W 122°56'0 0.0
2016-Jun-26 13:34N 46°05' W 122°56'0 0.0
2016-Jun-26 12:33N 46°05' W 122°56'0 0.0
2016-Jun-26 11:34N 46°05' W 122°56'0 0.0
2016-Jun-26 10:34N 46°05' W 122°56'0 0.0
2016-Jun-26 09:34N 46°05' W 122°56'0 0.0
2016-Jun-26 08:34N 46°05' W 122°56'0 0.0
2016-Jun-26 07:33N 46°05' W 122°56'0 0.0
2016-Jun-26 06:33N 46°05' W 122°56'0 0.0
2016-Jun-26 05:33N 46°05' W 122°56'0 0.0
2016-Jun-26 04:33N 46°05' W 122°56'0 0.0
2016-Jun-26 03:34N 46°05' W 122°56'0 0.0
2016-Jun-26 02:33N 46°05' W 122°56'0 0.0
2016-Jun-26 01:34N 46°05' W 122°56'0 0.0
2016-Jun-26 00:34N 46°05' W 122°56'0 0.0
2016-Jun-25 23:33N 46°05' W 122°56'0 0.0
2016-Jun-25 22:34N 46°05' W 122°56'1 1.0
2016-Jun-25 21:34N 46°06' W 122°57'1 0.7
2016-Jun-25 20:34N 46°07' W 122°58'2 1.7
2016-Jun-25 19:33N 46°05' W 122°56'0 0.0
2016-Jun-25 18:34N 46°05' W 122°56'0 0.0
2016-Jun-25 17:33N 46°05' W 122°56'0 0.0
2016-Jun-25 16:33N 46°05' W 122°56'0 0.0
2016-Jun-25 15:33N 46°05' W 122°56'0 0.0
2016-Jun-25 14:33N 46°05' W 122°56'0 0.2
2016-Jun-25 13:34N 46°06' W 122°56'3 2.6
2016-Jun-25 12:34N 46°07' W 122°59'1 0.7
2016-Jun-25 11:34N 46°07' W 122°58'0 0.0
2016-Jun-25 10:34N 46°07' W 122°58'0 0.0
2016-Jun-25 09:33N 46°07' W 122°58'0 0.0
2016-Jun-25 08:34N 46°07' W 122°58'0 0.0
2016-Jun-25 07:34N 46°07' W 122°58'2 2.2
2016-Jun-25 06:33N 46°05' W 122°56'1 0.6
2016-Jun-25 05:34N 46°06' W 122°56'0 0.0
2016-Jun-25 04:31N 46°06' W 122°56'0 0.0
2016-Jun-25 03:31N 46°06' W 122°56'1 0.7
2016-Jun-25 02:33N 46°05' W 122°56'0 0.0
2016-Jun-25 01:33N 46°05' W 122°56'0 0.0
2016-Jun-25 00:33N 46°05' W 122°56'0 0.0
2016-Jun-24 23:34N 46°05' W 122°56'0 0.0
2016-Jun-24 22:33N 46°05' W 122°56'0 0.0
2016-Jun-24 21:34N 46°05' W 122°56'0 0.0
2016-Jun-24 20:33N 46°05' W 122°56'0 0.0
2016-Jun-24 19:33N 46°05' W 122°56'8 7.6
2016-Jun-24 18:33N 45°59' W 122°50'2 1.5
2016-Jun-24 17:33N 46°00' W 122°51'1 0.6
2016-Jun-24 16:33N 46°01' W 122°52'5 5.2
2016-Jun-24 15:30N 46°05' W 122°56'0 0.0
2016-Jun-24 14:33N 46°05' W 122°56'0 0.0
2016-Jun-24 13:33N 46°05' W 122°56'0 0.0
2016-Jun-24 12:33N 46°05' W 122°56'4 3.6
2016-Jun-24 11:33N 46°03' W 122°53'1 1.3
2016-Jun-24 10:33N 46°04' W 122°53'1 1.4
2016-Jun-24 09:34N 46°05' W 122°54'8 8.5
2016-Jun-24 08:33N 46°10' W 123°05'10 9.7
2016-Jun-24 07:34N 46°09' W 123°19'23 7.6
2016-Jun-24 04:33N 46°11' W 123°52'2 1.8
2016-Jun-24 03:34N 46°12' W 123°49'0 0.1
2016-Jun-24 02:34N 46°12' W 123°49'0 0.0
2016-Jun-24 01:34N 46°12' W 123°49'0 0.1
2016-Jun-24 00:33N 46°12' W 123°49'0 0.1
2016-Jun-23 23:34N 46°12' W 123°49'0 0.0
2016-Jun-23 22:34N 46°12' W 123°49'0 0.1
2016-Jun-23 21:34N 46°12' W 123°49'0 0.0
2016-Jun-23 20:33N 46°12' W 123°49'0 0.0
2016-Jun-23 19:34N 46°12' W 123°49'0 0.3
2016-Jun-23 18:33N 46°12' W 123°49'1414.3
2016-Jun-23 17:34N 46°16' W 123°29'1211.8
2016-Jun-23 16:33N 46°09' W 123°16'1312.8
2016-Jun-23 15:33N 46°06' W 122°58'1 1.4
2016-Jun-23 14:34N 46°05' W 122°56'0 0.0
2016-Jun-23 13:34N 46°05' W 122°56'2 1.5
2016-Jun-23 12:34N 46°06' W 122°58'0 0.4
2016-Jun-23 11:34N 46°06' W 122°57'1 1.1
2016-Jun-23 10:34N 46°05' W 122°56'0 0.0
2016-Jun-23 09:34N 46°05' W 122°56'0 0.0
2016-Jun-23 08:33N 46°05' W 122°56'0 0.0
2016-Jun-23 07:34N 46°05' W 122°56'0 0.0
2016-Jun-23 05:33N 46°05' W 122°56'0 0.0
2016-Jun-23 04:34N 46°05' W 122°56'0 0.0
2016-Jun-23 03:34N 46°05' W 122°56'0 0.0
2016-Jun-23 02:34N 46°05' W 122°56'0 0.0
2016-Jun-23 01:33N 46°05' W 122°56'0 0.0
2016-Jun-23 00:34N 46°05' W 122°56'0 0.0
2016-Jun-22 23:34N 46°05' W 122°56'0 0.0
2016-Jun-22 22:33N 46°05' W 122°56'0 0.0
2016-Jun-22 21:33N 46°05' W 122°56'0 0.0
2016-Jun-22 20:34N 46°05' W 122°56'3 3.4
2016-Jun-22 19:33N 46°03' W 122°53'1 0.7
2016-Jun-22 18:33N 46°03' W 122°53'3 2.7
2016-Jun-22 17:31N 46°05' W 122°56'0 0.0
2016-Jun-22 16:28N 46°05' W 122°56'0 0.0
2016-Jun-22 15:31N 46°05' W 122°56'0 0.0
2016-Jun-22 14:31N 46°05' W 122°56'0 0.0
2016-Jun-22 13:31N 46°05' W 122°56'0 0.0
2016-Jun-22 12:31N 46°05' W 122°56'0 0.0
2016-Jun-22 11:31N 46°05' W 122°56'0 0.0
2016-Jun-22 10:31N 46°05' W 122°56'0 0.0
2016-Jun-22 09:31N 46°05' W 122°56'0 0.0
2016-Jun-22 08:31N 46°05' W 122°56'0 0.0
2016-Jun-22 07:31N 46°05' W 122°56'0 0.0
2016-Jun-22 06:31N 46°05' W 122°56'1 0.6
2016-Jun-22 05:33N 46°06' W 122°56'0 0.0
2016-Jun-22 04:33N 46°06' W 122°56'0 0.0
2016-Jun-22 03:33N 46°06' W 122°56'0 0.0
2016-Jun-22 02:34N 46°06' W 122°56'1 0.5
2016-Jun-22 01:33N 46°05' W 122°56'0 0.1
2016-Jun-22 00:34N 46°05' W 122°56'10 9.7
2016-Jun-21 23:34N 45°57' W 122°49'1010.5
2016-Jun-21 22:34N 45°47' W 122°46'8 7.9
2016-Jun-21 21:31N 45°39' W 122°45'0 0.0
2016-Jun-21 20:31N 45°39' W 122°45'0 0.0
2016-Jun-21 19:25N 45°39' W 122°45'0 0.0
2016-Jun-21 18:31N 45°39' W 122°45'0 0.0
2016-Jun-21 17:31N 45°39' W 122°45'0 0.0
2016-Jun-21 16:31N 45°39' W 122°45'0 0.0
2016-Jun-21 15:25N 45°39' W 122°45'0 0.0
2016-Jun-21 14:31N 45°39' W 122°45'0 0.0
2016-Jun-21 13:31N 45°39' W 122°45'0 0.0
2016-Jun-21 12:31N 45°39' W 122°45'0 0.0
2016-Jun-21 11:31N 45°39' W 122°45'0 0.0
2016-Jun-21 10:31N 45°39' W 122°45'0 0.0
2016-Jun-21 09:31N 45°39' W 122°45'0 0.0
2016-Jun-21 08:31N 45°39' W 122°45'0 0.0
2016-Jun-21 07:31N 45°39' W 122°45'0 0.0
2016-Jun-21 04:31N 45°39' W 122°45'0 0.0
2016-Jun-21 03:31N 45°39' W 122°45'0 0.0
2016-Jun-21 02:31N 45°39' W 122°45'0 0.0
2016-Jun-21 01:31N 45°39' W 122°45'0 0.0
2016-Jun-21 00:31N 45°39' W 122°45'0 0.0
2016-Jun-20 23:31N 45°39' W 122°45'0 0.0
2016-Jun-20 22:31N 45°39' W 122°45'0 0.0
2016-Jun-20 21:31N 45°39' W 122°45'0 0.0
2016-Jun-20 20:31N 45°39' W 122°45'0 0.0
2016-Jun-20 19:31N 45°39' W 122°45'0 0.0
2016-Jun-20 18:31N 45°39' W 122°45'0 0.0
2016-Jun-20 17:31N 45°39' W 122°45'0 0.0
2016-Jun-20 16:31N 45°39' W 122°45'0 0.0
2016-Jun-20 15:28N 45°39' W 122°45'0 0.0
2016-Jun-20 14:31N 45°39' W 122°45'0 0.1
2016-Jun-20 13:34N 45°39' W 122°45'3 2.5
2016-Jun-20 12:34N 45°38' W 122°42'3 2.5
2016-Jun-20 11:31N 45°39' W 122°45'0 0.0
2016-Jun-20 10:28N 45°39' W 122°45'0 0.0
2016-Jun-20 09:31N 45°39' W 122°45'0 0.0
2016-Jun-20 08:33N 45°39' W 122°45'0 0.0
2016-Jun-20 07:33N 45°39' W 122°45'0 0.0
2016-Jun-20 06:33N 45°39' W 122°45'0 0.0
2016-Jun-20 05:30N 45°39' W 122°45'0 0.0
2016-Jun-20 04:33N 45°39' W 122°45'3 2.8
2016-Jun-20 03:33N 45°41' W 122°46'9 9.0
2016-Jun-20 02:33N 45°50' W 122°47'8 8.0
2016-Jun-20 01:33N 45°58' W 122°50'8 8.5
2016-Jun-20 00:33N 46°05' W 122°56'0 0.0
2016-Jun-19 23:33N 46°05' W 122°56'0 0.0
2016-Jun-19 22:33N 46°05' W 122°56'0 0.0
2016-Jun-19 21:33N 46°05' W 122°56'0 0.0
2016-Jun-19 20:33N 46°05' W 122°56'0 0.0
2016-Jun-19 19:33N 46°05' W 122°56'0 0.0
2016-Jun-19 18:33N 46°05' W 122°56'0 0.0
2016-Jun-19 17:33N 46°05' W 122°56'0 0.0
2016-Jun-19 16:33N 46°05' W 122°56'0 0.0
2016-Jun-19 15:33N 46°05' W 122°56'0 0.0
2016-Jun-19 14:33N 46°05' W 122°56'0 0.0
2016-Jun-19 13:33N 46°05' W 122°56'0 0.0
2016-Jun-19 12:33N 46°05' W 122°56'0 0.0
2016-Jun-19 11:33N 46°05' W 122°56'0 0.0
2016-Jun-19 10:33N 46°05' W 122°56'0 0.1
2016-Jun-19 09:33N 46°06' W 122°56'0 0.4
2016-Jun-19 08:34N 46°06' W 122°56'1 0.5
2016-Jun-19 07:33N 46°05' W 122°56'0 0.0
2016-Jun-19 06:33N 46°05' W 122°56'0 0.0
2016-Jun-19 05:33N 46°05' W 122°56'0 0.0
2016-Jun-19 04:30N 46°05' W 122°56'0 0.0
2016-Jun-19 03:30N 46°05' W 122°56'0 0.0
2016-Jun-19 02:33N 46°05' W 122°56'0 0.0
2016-Jun-19 01:33N 46°05' W 122°56'0 0.0
2016-Jun-19 00:30N 46°05' W 122°56'0 0.0
2016-Jun-18 23:30N 46°05' W 122°56'0 0.0
2016-Jun-18 22:33N 46°05' W 122°56'0 0.0
2016-Jun-18 21:33N 46°05' W 122°56'0 0.0
2016-Jun-18 20:33N 46°05' W 122°56'0 0.0
2016-Jun-18 19:33N 46°05' W 122°56'0 0.0
2016-Jun-18 18:33N 46°05' W 122°56'0 0.0
2016-Jun-18 17:30N 46°05' W 122°56'0 0.0
2016-Jun-18 16:30N 46°05' W 122°56'0 0.0
2016-Jun-18 15:30N 46°05' W 122°56'0 0.0
2016-Jun-18 14:30N 46°05' W 122°56'1 0.7
2016-Jun-18 13:33N 46°06' W 122°56'0 0.5
2016-Jun-18 12:33N 46°06' W 122°57'1 0.9
2016-Jun-18 11:33N 46°05' W 122°56'0 0.0
2016-Jun-18 10:33N 46°05' W 122°56'0 0.0
2016-Jun-18 09:33N 46°05' W 122°56'0 0.0
2016-Jun-18 08:33N 46°05' W 122°56'0 0.0
2016-Jun-18 07:33N 46°05' W 122°56'0 0.0
2016-Jun-18 06:33N 46°05' W 122°56'0 0.4
2016-Jun-18 05:34N 46°06' W 122°56'0 0.2
2016-Jun-18 04:34N 46°06' W 122°56'1 0.5
2016-Jun-18 03:34N 46°05' W 122°56'0 0.0
2016-Jun-18 02:33N 46°05' W 122°56'0 0.0
2016-Jun-18 01:33N 46°05' W 122°56'0 0.0
2016-Jun-18 00:33N 46°05' W 122°56'8 7.7
2016-Jun-17 23:34N 45°59' W 122°50'2 2.2
2016-Jun-17 22:33N 46°01' W 122°52'1 0.9
2016-Jun-17 21:32N 46°02' W 122°52'3 3.4
2016-Jun-17 20:33N 46°05' W 122°54'1 1.4
2016-Jun-17 19:31N 46°05' W 122°56'0 0.0
2016-Jun-17 18:31N 46°05' W 122°56'0 0.0
2016-Jun-17 17:31N 46°05' W 122°56'0 0.0
2016-Jun-17 16:31N 46°05' W 122°56'0 0.0
2016-Jun-17 15:28N 46°05' W 122°56'0 0.0
2016-Jun-17 14:25N 46°05' W 122°56'0 0.0
2016-Jun-17 13:25N 46°05' W 122°56'0 0.0
2016-Jun-17 12:31N 46°05' W 122°56'2 1.7
2016-Jun-17 11:34N 46°07' W 122°58'0 0.2
2016-Jun-17 10:33N 46°07' W 122°58'2 1.8
2016-Jun-17 09:33N 46°05' W 122°56'  
Track history (hours):
 
Tides and Currents Weather Stations Pressure Air Temp Water Temp Dewpoint Dewpoint Depression Visibility Wind Speed Wind Dir Waves Ship Positions

Portland

Owner: Shaver Transportation Company, Portland, OR. More information available from US FCC via Universal Licensing System and Coast Guard Vessel Documentation Center.

Last reported at 2016-Jun-27 03:32 UTC. Time now 2016-Jun-27 04:15 UTC.
Position N 46°05' W 122°56'.

Length 27 m; draft 4 m.

Type: Towing. MMSI: 367315814.

Date/timePositionNaut miles runAvg speedWind from/ knotsBaromVisibWave heightAir tempDewpointWater temp
2016-Jun-27 03:32N 46°05' W 122°56'0 0.0
2016-Jun-27 02:33N 46°05' W 122°56'1 0.5
2016-Jun-27 01:33N 46°06' W 122°56'0 0.0
2016-Jun-27 00:34N 46°06' W 122°56'1 0.5
2016-Jun-26 23:34N 46°05' W 122°56'4 3.7
2016-Jun-26 22:34N 46°03' W 122°53'4 3.7
2016-Jun-26 21:34N 46°05' W 122°56'0 0.0
2016-Jun-26 20:34N 46°05' W 122°56'0 0.0
2016-Jun-26 19:34N 46°05' W 122°56'0 0.0
2016-Jun-26 18:33N 46°05' W 122°56'0 0.0
2016-Jun-26 17:33N 46°05' W 122°56'0 0.0
2016-Jun-26 16:33N 46°05' W 122°56'0 0.0
2016-Jun-26 15:34N 46°05' W 122°56'0 0.0
2016-Jun-26 14:33N 46°05' W 122°56'0 0.0
2016-Jun-26 13:34N 46°05' W 122°56'0 0.0
2016-Jun-26 12:33N 46°05' W 122°56'0 0.0
2016-Jun-26 11:34N 46°05' W 122°56'0 0.0
2016-Jun-26 10:34N 46°05' W 122°56'0 0.0
2016-Jun-26 09:34N 46°05' W 122°56'0 0.0
2016-Jun-26 08:34N 46°05' W 122°56'0 0.0
2016-Jun-26 07:33N 46°05' W 122°56'0 0.0
2016-Jun-26 06:33N 46°05' W 122°56'0 0.0
2016-Jun-26 05:33N 46°05' W 122°56'0 0.0
2016-Jun-26 04:33N 46°05' W 122°56'0 0.0
2016-Jun-26 03:34N 46°05' W 122°56'0 0.0
2016-Jun-26 02:33N 46°05' W 122°56'0 0.0
2016-Jun-26 01:34N 46°05' W 122°56'0 0.0
2016-Jun-26 00:34N 46°05' W 122°56'0 0.0
2016-Jun-25 23:33N 46°05' W 122°56'0 0.0
2016-Jun-25 22:34N 46°05' W 122°56'1 1.0
2016-Jun-25 21:34N 46°06' W 122°57'1 0.7
2016-Jun-25 20:34N 46°07' W 122°58'2 1.7
2016-Jun-25 19:33N 46°05' W 122°56'0 0.0
2016-Jun-25 18:34N 46°05' W 122°56'0 0.0
2016-Jun-25 17:33N 46°05' W 122°56'0 0.0
2016-Jun-25 16:33N 46°05' W 122°56'0 0.0
2016-Jun-25 15:33N 46°05' W 122°56'0 0.0
2016-Jun-25 14:33N 46°05' W 122°56'0 0.2
2016-Jun-25 13:34N 46°06' W 122°56'3 2.6
2016-Jun-25 12:34N 46°07' W 122°59'1 0.7
2016-Jun-25 11:34N 46°07' W 122°58'0 0.0
2016-Jun-25 10:34N 46°07' W 122°58'0 0.0
2016-Jun-25 09:33N 46°07' W 122°58'0 0.0
2016-Jun-25 08:34N 46°07' W 122°58'0 0.0
2016-Jun-25 07:34N 46°07' W 122°58'2 2.2
2016-Jun-25 06:33N 46°05' W 122°56'1 0.6
2016-Jun-25 05:34N 46°06' W 122°56'0 0.0
2016-Jun-25 04:31N 46°06' W 122°56'0 0.0
2016-Jun-25 03:31N 46°06' W 122°56'1 0.7
2016-Jun-25 02:33N 46°05' W 122°56'0 0.0
2016-Jun-25 01:33N 46°05' W 122°56'0 0.0
2016-Jun-25 00:33N 46°05' W 122°56'0 0.0
2016-Jun-24 23:34N 46°05' W 122°56'0 0.0
2016-Jun-24 22:33N 46°05' W 122°56'0 0.0
2016-Jun-24 21:34N 46°05' W 122°56'0 0.0
2016-Jun-24 20:33N 46°05' W 122°56'0 0.0
2016-Jun-24 19:33N 46°05' W 122°56'8 7.6
2016-Jun-24 18:33N 45°59' W 122°50'2 1.5
2016-Jun-24 17:33N 46°00' W 122°51'1 0.6
2016-Jun-24 16:33N 46°01' W 122°52'5 5.2
2016-Jun-24 15:30N 46°05' W 122°56'0 0.0
2016-Jun-24 14:33N 46°05' W 122°56'0 0.0
2016-Jun-24 13:33N 46°05' W 122°56'0 0.0
2016-Jun-24 12:33N 46°05' W 122°56'4 3.6
2016-Jun-24 11:33N 46°03' W 122°53'1 1.3
2016-Jun-24 10:33N 46°04' W 122°53'1 1.4
2016-Jun-24 09:34N 46°05' W 122°54'8 8.5
2016-Jun-24 08:33N 46°10' W 123°05'10 9.7
2016-Jun-24 07:34N 46°09' W 123°19'23 7.6
2016-Jun-24 04:33N 46°11' W 123°52'2 1.8
2016-Jun-24 03:34N 46°12' W 123°49'0 0.1
2016-Jun-24 02:34N 46°12' W 123°49'0 0.0
2016-Jun-24 01:34N 46°12' W 123°49'0 0.1
2016-Jun-24 00:33N 46°12' W 123°49'0 0.1
2016-Jun-23 23:34N 46°12' W 123°49'0 0.0
2016-Jun-23 22:34N 46°12' W 123°49'0 0.1
2016-Jun-23 21:34N 46°12' W 123°49'0 0.0
2016-Jun-23 20:33N 46°12' W 123°49'0 0.0
2016-Jun-23 19:34N 46°12' W 123°49'0 0.3
2016-Jun-23 18:33N 46°12' W 123°49'1414.3
2016-Jun-23 17:34N 46°16' W 123°29'1211.8
2016-Jun-23 16:33N 46°09' W 123°16'1312.8
2016-Jun-23 15:33N 46°06' W 122°58'1 1.4
2016-Jun-23 14:34N 46°05' W 122°56'0 0.0
2016-Jun-23 13:34N 46°05' W 122°56'2 1.5
2016-Jun-23 12:34N 46°06' W 122°58'0 0.4
2016-Jun-23 11:34N 46°06' W 122°57'1 1.1
2016-Jun-23 10:34N 46°05' W 122°56'0 0.0
2016-Jun-23 09:34N 46°05' W 122°56'0 0.0
2016-Jun-23 08:33N 46°05' W 122°56'0 0.0
2016-Jun-23 07:34N 46°05' W 122°56'0 0.0
2016-Jun-23 05:33N 46°05' W 122°56'0 0.0
2016-Jun-23 04:34N 46°05' W 122°56'0 0.0
2016-Jun-23 03:34N 46°05' W 122°56'0 0.0
2016-Jun-23 02:34N 46°05' W 122°56'0 0.0
2016-Jun-23 01:33N 46°05' W 122°56'0 0.0
2016-Jun-23 00:34N 46°05' W 122°56'0 0.0
2016-Jun-22 23:34N 46°05' W 122°56'0 0.0
2016-Jun-22 22:33N 46°05' W 122°56'0 0.0
2016-Jun-22 21:33N 46°05' W 122°56'0 0.0
2016-Jun-22 20:34N 46°05' W 122°56'3 3.4
2016-Jun-22 19:33N 46°03' W 122°53'1 0.7
2016-Jun-22 18:33N 46°03' W 122°53'3 2.7
2016-Jun-22 17:31N 46°05' W 122°56'0 0.0
2016-Jun-22 16:28N 46°05' W 122°56'0 0.0
2016-Jun-22 15:31N 46°05' W 122°56'0 0.0
2016-Jun-22 14:31N 46°05' W 122°56'0 0.0
2016-Jun-22 13:31N 46°05' W 122°56'0 0.0
2016-Jun-22 12:31N 46°05' W 122°56'0 0.0
2016-Jun-22 11:31N 46°05' W 122°56'0 0.0
2016-Jun-22 10:31N 46°05' W 122°56'0 0.0
2016-Jun-22 09:31N 46°05' W 122°56'0 0.0
2016-Jun-22 08:31N 46°05' W 122°56'0 0.0
2016-Jun-22 07:31N 46°05' W 122°56'0 0.0
2016-Jun-22 06:31N 46°05' W 122°56'1 0.6
2016-Jun-22 05:33N 46°06' W 122°56'0 0.0
2016-Jun-22 04:33N 46°06' W 122°56'0 0.0
2016-Jun-22 03:33N 46°06' W 122°56'0 0.0
2016-Jun-22 02:34N 46°06' W 122°56'1 0.5
2016-Jun-22 01:33N 46°05' W 122°56'0 0.1
2016-Jun-22 00:34N 46°05' W 122°56'10 9.7
2016-Jun-21 23:34N 45°57' W 122°49'1010.5
2016-Jun-21 22:34N 45°47' W 122°46'8 7.9
2016-Jun-21 21:31N 45°39' W 122°45'0 0.0
2016-Jun-21 20:31N 45°39' W 122°45'0 0.0
2016-Jun-21 19:25N 45°39' W 122°45'0 0.0
2016-Jun-21 18:31N 45°39' W 122°45'0 0.0
2016-Jun-21 17:31N 45°39' W 122°45'0 0.0
2016-Jun-21 16:31N 45°39' W 122°45'0 0.0
2016-Jun-21 15:25N 45°39' W 122°45'0 0.0
2016-Jun-21 14:31N 45°39' W 122°45'0 0.0
2016-Jun-21 13:31N 45°39' W 122°45'0 0.0
2016-Jun-21 12:31N 45°39' W 122°45'0 0.0
2016-Jun-21 11:31N 45°39' W 122°45'0 0.0
2016-Jun-21 10:31N 45°39' W 122°45'0 0.0
2016-Jun-21 09:31N 45°39' W 122°45'0 0.0
2016-Jun-21 08:31N 45°39' W 122°45'0 0.0
2016-Jun-21 07:31N 45°39' W 122°45'0 0.0
2016-Jun-21 04:31N 45°39' W 122°45'0 0.0
2016-Jun-21 03:31N 45°39' W 122°45'0 0.0
2016-Jun-21 02:31N 45°39' W 122°45'0 0.0
2016-Jun-21 01:31N 45°39' W 122°45'0 0.0
2016-Jun-21 00:31N 45°39' W 122°45'0 0.0
2016-Jun-20 23:31N 45°39' W 122°45'0 0.0
2016-Jun-20 22:31N 45°39' W 122°45'0 0.0
2016-Jun-20 21:31N 45°39' W 122°45'0 0.0
2016-Jun-20 20:31N 45°39' W 122°45'0 0.0
2016-Jun-20 19:31N 45°39' W 122°45'0 0.0
2016-Jun-20 18:31N 45°39' W 122°45'0 0.0
2016-Jun-20 17:31N 45°39' W 122°45'0 0.0
2016-Jun-20 16:31N 45°39' W 122°45'0 0.0
2016-Jun-20 15:28N 45°39' W 122°45'0 0.0
2016-Jun-20 14:31N 45°39' W 122°45'0 0.1
2016-Jun-20 13:34N 45°39' W 122°45'3 2.5
2016-Jun-20 12:34N 45°38' W 122°42'3 2.5
2016-Jun-20 11:31N 45°39' W 122°45'0 0.0
2016-Jun-20 10:28N 45°39' W 122°45'0 0.0
2016-Jun-20 09:31N 45°39' W 122°45'0 0.0
2016-Jun-20 08:33N 45°39' W 122°45'0 0.0
2016-Jun-20 07:33N 45°39' W 122°45'0 0.0
2016-Jun-20 06:33N 45°39' W 122°45'0 0.0
2016-Jun-20 05:30N 45°39' W 122°45'0 0.0
2016-Jun-20 04:33N 45°39' W 122°45'3 2.8
2016-Jun-20 03:33N 45°41' W 122°46'9 9.0
2016-Jun-20 02:33N 45°50' W 122°47'8 8.0
2016-Jun-20 01:33N 45°58' W 122°50'8 8.5
2016-Jun-20 00:33N 46°05' W 122°56'0 0.0
2016-Jun-19 23:33N 46°05' W 122°56'0 0.0
2016-Jun-19 22:33N 46°05' W 122°56'0 0.0
2016-Jun-19 21:33N 46°05' W 122°56'0 0.0
2016-Jun-19 20:33N 46°05' W 122°56'0 0.0
2016-Jun-19 19:33N 46°05' W 122°56'0 0.0
2016-Jun-19 18:33N 46°05' W 122°56'0 0.0
2016-Jun-19 17:33N 46°05' W 122°56'0 0.0
2016-Jun-19 16:33N 46°05' W 122°56'0 0.0
2016-Jun-19 15:33N 46°05' W 122°56'0 0.0
2016-Jun-19 14:33N 46°05' W 122°56'0 0.0
2016-Jun-19 13:33N 46°05' W 122°56'0 0.0
2016-Jun-19 12:33N 46°05' W 122°56'0 0.0
2016-Jun-19 11:33N 46°05' W 122°56'0 0.0
2016-Jun-19 10:33N 46°05' W 122°56'0 0.1
2016-Jun-19 09:33N 46°06' W 122°56'0 0.4
2016-Jun-19 08:34N 46°06' W 122°56'1 0.5
2016-Jun-19 07:33N 46°05' W 122°56'0 0.0
2016-Jun-19 06:33N 46°05' W 122°56'0 0.0
2016-Jun-19 05:33N 46°05' W 122°56'0 0.0
2016-Jun-19 04:30N 46°05' W 122°56'0 0.0
2016-Jun-19 03:30N 46°05' W 122°56'0 0.0
2016-Jun-19 02:33N 46°05' W 122°56'0 0.0
2016-Jun-19 01:33N 46°05' W 122°56'0 0.0
2016-Jun-19 00:30N 46°05' W 122°56'0 0.0
2016-Jun-18 23:30N 46°05' W 122°56'0 0.0
2016-Jun-18 22:33N 46°05' W 122°56'0 0.0
2016-Jun-18 21:33N 46°05' W 122°56'0 0.0
2016-Jun-18 20:33N 46°05' W 122°56'0 0.0
2016-Jun-18 19:33N 46°05' W 122°56'0 0.0
2016-Jun-18 18:33N 46°05' W 122°56'0 0.0
2016-Jun-18 17:30N 46°05' W 122°56'0 0.0
2016-Jun-18 16:30N 46°05' W 122°56'0 0.0
2016-Jun-18 15:30N 46°05' W 122°56'0 0.0
2016-Jun-18 14:30N 46°05' W 122°56'1 0.7
2016-Jun-18 13:33N 46°06' W 122°56'0 0.5
2016-Jun-18 12:33N 46°06' W 122°57'1 0.9
2016-Jun-18 11:33N 46°05' W 122°56'0 0.0
2016-Jun-18 10:33N 46°05' W 122°56'0 0.0
2016-Jun-18 09:33N 46°05' W 122°56'0 0.0
2016-Jun-18 08:33N 46°05' W 122°56'0 0.0
2016-Jun-18 07:33N 46°05' W 122°56'0 0.0
2016-Jun-18 06:33N 46°05' W 122°56'0 0.4
2016-Jun-18 05:34N 46°06' W 122°56'0 0.2
2016-Jun-18 04:34N 46°06' W 122°56'1 0.5
2016-Jun-18 03:34N 46°05' W 122°56'0 0.0
2016-Jun-18 02:33N 46°05' W 122°56'0 0.0
2016-Jun-18 01:33N 46°05' W 122°56'0 0.0
2016-Jun-18 00:33N 46°05' W 122°56'8 7.7
2016-Jun-17 23:34N 45°59' W 122°50'2 2.2
2016-Jun-17 22:33N 46°01' W 122°52'1 0.9
2016-Jun-17 21:32N 46°02' W 122°52'3 3.4
2016-Jun-17 20:33N 46°05' W 122°54'1 1.4
2016-Jun-17 19:31N 46°05' W 122°56'0 0.0
2016-Jun-17 18:31N 46°05' W 122°56'0 0.0
2016-Jun-17 17:31N 46°05' W 122°56'0 0.0
2016-Jun-17 16:31N 46°05' W 122°56'0 0.0
2016-Jun-17 15:28N 46°05' W 122°56'0 0.0
2016-Jun-17 14:25N 46°05' W 122°56'0 0.0
2016-Jun-17 13:25N 46°05' W 122°56'0 0.0
2016-Jun-17 12:31N 46°05' W 122°56'2 1.7
2016-Jun-17 11:34N 46°07' W 122°58'0 0.2
2016-Jun-17 10:33N 46°07' W 122°58'2 1.8
2016-Jun-17 09:33N 46°05' W 122°56'  

Dump ship's entire track history